createdAt,value
2019-02-25T00:00:57.139Z,80.58
2019-02-25T00:01:57.021Z,80.58
2019-02-25T00:02:56.924Z,81.25
2019-02-25T00:03:56.821Z,81.34
2019-02-25T00:04:56.930Z,81.06
2019-02-25T00:05:56.647Z,79.17
2019-02-25T00:06:56.513Z,79.26
2019-02-25T00:07:56.411Z,80.68
2019-02-25T00:08:56.323Z,81.92
2019-02-25T00:09:56.206Z,87.55
2019-02-25T00:10:56.120Z,87.55
2019-02-25T00:11:56.004Z,87.93
2019-02-25T00:12:55.902Z,88.02
2019-02-25T00:13:55.799Z,84.81
2019-02-25T00:14:55.696Z,83.20
2019-02-25T00:15:55.614Z,82.91
2019-02-25T00:16:55.494Z,84.52
2019-02-25T00:17:55.394Z,84.42
2019-02-25T00:18:55.291Z,86.04
2019-02-25T00:19:55.194Z,88.49
2019-02-25T00:20:55.110Z,91.91
2019-02-25T00:21:54.987Z,93.80
2019-02-25T00:22:54.886Z,93.13
2019-02-25T00:23:54.786Z,91.91
2019-02-25T00:24:54.783Z,92.29
2019-02-25T00:25:54.597Z,94.23
2019-02-25T00:26:54.478Z,93.56
2019-02-25T00:27:54.377Z,92.99
2019-02-25T00:28:54.279Z,93.94
2019-02-25T00:29:54.174Z,95.07
2019-02-25T00:30:54.088Z,96.31
2019-02-25T00:31:53.973Z,97.34
2019-02-25T00:32:53.868Z,98.01
2019-02-25T00:33:53.768Z,98.10
2019-02-25T00:34:53.670Z,98.48
2019-02-25T00:35:53.583Z,97.63
2019-02-25T00:36:53.479Z,97.82
2019-02-25T00:37:53.364Z,97.63
2019-02-25T00:38:53.257Z,97.63
2019-02-25T00:39:53.156Z,96.50
2019-02-25T00:40:53.069Z,97.06
2019-02-25T00:41:52.955Z,94.60
2019-02-25T00:42:52.851Z,92.24
2019-02-25T00:43:52.747Z,89.92
2019-02-25T00:44:52.649Z,88.40
2019-02-25T00:45:52.561Z,86.70
2019-02-25T00:46:52.440Z,86.22
2019-02-25T00:47:52.340Z,85.66
2019-02-25T00:48:52.240Z,86.79
2019-02-25T00:49:52.137Z,87.65
2019-02-25T00:50:52.053Z,86.51
2019-02-25T00:51:51.931Z,85.38
2019-02-25T00:52:51.830Z,85.38
2019-02-25T00:53:51.727Z,87.36
2019-02-25T00:54:51.626Z,86.13
2019-02-25T00:55:51.544Z,85.66
2019-02-25T00:56:51.425Z,85.19
2019-02-25T00:57:51.321Z,85.57
2019-02-25T00:58:51.215Z,86.70
2019-02-25T00:59:51.116Z,87.74
2019-02-25T01:00:51.032Z,88.40
2019-02-25T01:01:50.913Z,88.68
2019-02-25T01:02:50.812Z,89.54
2019-02-25T01:03:50.709Z,90.96
2019-02-25T01:04:50.607Z,92.29
2019-02-25T01:05:50.526Z,94.37
2019-02-25T01:06:50.403Z,94.42
2019-02-25T01:07:50.304Z,94.27
2019-02-25T01:08:50.204Z,93.75
2019-02-25T01:09:50.103Z,93.13
2019-02-25T01:10:50.011Z,94.04
2019-02-25T01:11:49.899Z,95.74
2019-02-25T01:12:49.796Z,95.93
2019-02-25T01:13:49.688Z,96.59
2019-02-25T01:14:49.588Z,96.78
2019-02-25T01:15:49.506Z,96.59
2019-02-25T01:16:49.386Z,96.97
2019-02-25T01:17:49.284Z,98.48
2019-02-25T01:18:49.184Z,98.86
2019-02-25T01:19:49.078Z,99.99
2019-02-25T01:20:48.995Z,98.96
2019-02-25T01:21:48.874Z,99.52
2019-02-25T01:22:48.778Z,98.39
2019-02-25T01:23:49.028Z,98.58
2019-02-25T01:24:48.568Z,98.01
2019-02-25T01:25:48.469Z,98.58
2019-02-25T01:26:48.380Z,99.05
2019-02-25T01:27:48.272Z,99.15
2019-02-25T01:28:48.160Z,98.10
2019-02-25T01:29:48.060Z,98.96
2019-02-25T01:30:47.971Z,99.99
2019-02-25T01:31:47.854Z,99.99
2019-02-25T01:32:47.753Z,99.99
2019-02-25T01:33:47.652Z,99.99
2019-02-25T01:34:47.551Z,99.99
2019-02-25T01:35:47.449Z,99.99
2019-02-25T01:36:47.359Z,99.99
2019-02-25T01:37:47.240Z,99.99
2019-02-25T01:38:47.142Z,99.99
2019-02-25T01:39:47.041Z,99.99
2019-02-25T01:40:46.934Z,99.99
2019-02-25T01:41:46.968Z,99.99
2019-02-25T01:42:46.729Z,99.47
2019-02-25T01:43:46.631Z,98.90
2019-02-25T01:44:46.530Z,97.11
2019-02-25T01:45:46.432Z,95.31
2019-02-25T01:46:46.335Z,95.03
2019-02-25T01:47:46.218Z,97.67
2019-02-25T01:48:46.220Z,99.99
2019-02-25T01:49:46.013Z,99.99
2019-02-25T01:50:45.918Z,99.99
2019-02-25T01:51:45.846Z,99.99
2019-02-25T01:52:45.706Z,99.99
2019-02-25T01:53:45.610Z,96.45
2019-02-25T01:54:45.503Z,92.71
2019-02-25T01:55:45.500Z,89.12
2019-02-25T01:56:45.317Z,86.85
2019-02-25T01:57:45.199Z,84.29
2019-02-25T01:58:45.093Z,82.63
2019-02-25T01:59:44.994Z,81.02
2019-02-25T02:00:44.910Z,80.64
2019-02-25T02:01:44.801Z,80.74
2019-02-25T02:02:44.790Z,81.40
2019-02-25T02:03:44.580Z,81.21
2019-02-25T02:04:44.479Z,80.83
2019-02-25T02:05:44.377Z,80.83
2019-02-25T02:06:44.292Z,80.07
2019-02-25T02:07:44.176Z,80.64
2019-02-25T02:08:44.070Z,81.77
2019-02-25T02:09:44.081Z,81.77
2019-02-25T02:10:43.868Z,80.83
2019-02-25T02:11:43.783Z,79.79
2019-02-25T02:12:43.661Z,78.46
2019-02-25T02:13:43.560Z,77.33
2019-02-25T02:14:43.456Z,76.67
2019-02-25T02:15:43.354Z,76.29
2019-02-25T02:16:43.374Z,76.38
2019-02-25T02:17:43.157Z,77.33
2019-02-25T02:18:43.047Z,78.37
2019-02-25T02:19:42.948Z,78.46
2019-02-25T02:20:42.843Z,78.37
2019-02-25T02:21:42.761Z,77.61
2019-02-25T02:22:42.638Z,76.67
2019-02-25T02:23:42.643Z,77.27
2019-02-25T02:24:42.438Z,76.89
2019-02-25T02:25:42.334Z,77.37
2019-02-25T02:26:42.258Z,77.75
2019-02-25T02:27:42.148Z,78.03
2019-02-25T02:28:42.030Z,80.40
2019-02-25T02:29:41.933Z,82.34
2019-02-25T02:30:41.924Z,85.94
2019-02-25T02:31:41.742Z,89.25
2019-02-25T02:32:41.620Z,85.85
2019-02-25T02:33:41.522Z,84.33
2019-02-25T02:34:41.415Z,86.70
2019-02-25T02:35:41.316Z,90.77
2019-02-25T02:36:41.303Z,93.80
2019-02-25T02:37:41.232Z,93.23
2019-02-25T02:38:41.010Z,92.85
2019-02-25T02:39:40.912Z,92.00
2019-02-25T02:40:40.807Z,90.20
2019-02-25T02:41:40.720Z,88.02
2019-02-25T02:42:40.603Z,86.41
2019-02-25T02:43:40.499Z,85.47
2019-02-25T02:44:40.503Z,87.46
2019-02-25T02:45:40.291Z,92.47
2019-02-25T02:46:40.211Z,95.74
2019-02-25T02:47:40.093Z,97.72
2019-02-25T02:48:39.990Z,98.20
2019-02-25T02:49:39.884Z,98.96
2019-02-25T02:50:39.914Z,99.33
2019-02-25T02:51:39.717Z,98.39
2019-02-25T02:52:39.583Z,99.05
2019-02-25T02:53:39.479Z,99.95
2019-02-25T02:54:39.378Z,98.71
2019-02-25T02:55:39.289Z,97.16
2019-02-25T02:56:39.188Z,94.79
2019-02-25T02:57:39.072Z,95.55
2019-02-25T02:58:39.072Z,96.59
2019-02-25T02:59:38.867Z,98.10
2019-02-25T03:00:38.765Z,99.90
2019-02-25T03:01:38.678Z,99.99
2019-02-25T03:02:38.560Z,99.99
2019-02-25T03:03:38.457Z,99.99
2019-02-25T03:04:38.499Z,98.20
2019-02-25T03:05:38.252Z,94.51
2019-02-25T03:06:38.155Z,93.28
2019-02-25T03:07:38.067Z,91.20
2019-02-25T03:08:37.947Z,88.40
2019-02-25T03:09:37.845Z,85.57
2019-02-25T03:10:37.746Z,83.67
2019-02-25T03:11:37.655Z,82.25
2019-02-25T03:12:37.536Z,81.82
2019-02-25T03:13:37.436Z,82.57
2019-02-25T03:14:37.346Z,83.81
2019-02-25T03:15:37.234Z,85.13
2019-02-25T03:16:37.141Z,86.55
2019-02-25T03:17:37.042Z,88.78
2019-02-25T03:18:36.923Z,90.11
2019-02-25T03:19:36.824Z,91.15
2019-02-25T03:20:36.727Z,89.35
2019-02-25T03:21:36.658Z,87.17
2019-02-25T03:22:36.543Z,84.90
2019-02-25T03:23:36.417Z,83.58
2019-02-25T03:24:36.320Z,82.06
2019-02-25T03:25:36.209Z,81.30
2019-02-25T03:26:36.112Z,81.25
2019-02-25T03:27:36.025Z,81.44
2019-02-25T03:28:35.909Z,84.66
2019-02-25T03:29:35.810Z,90.39
2019-02-25T03:30:35.700Z,94.70
2019-02-25T03:31:35.601Z,97.34
2019-02-25T03:32:35.513Z,97.53
2019-02-25T03:33:35.402Z,94.13
2019-02-25T03:34:35.291Z,90.34
2019-02-25T03:35:35.193Z,87.84
2019-02-25T03:36:35.090Z,84.81
2019-02-25T03:37:35.001Z,87.08
2019-02-25T03:38:34.889Z,89.82
2019-02-25T03:39:34.786Z,91.91
2019-02-25T03:40:34.680Z,88.49
2019-02-25T03:41:34.578Z,87.55
2019-02-25T03:42:34.493Z,86.89
2019-02-25T03:43:34.376Z,85.75
2019-02-25T03:44:34.272Z,86.22
2019-02-25T03:45:34.171Z,85.28
2019-02-25T03:46:34.067Z,84.23
2019-02-25T03:47:33.988Z,83.48
2019-02-25T03:48:33.876Z,86.13
2019-02-25T03:49:33.765Z,89.44
2019-02-25T03:50:33.659Z,91.72
2019-02-25T03:51:33.575Z,93.80
2019-02-25T03:52:33.474Z,95.74
2019-02-25T03:53:33.355Z,95.36
2019-02-25T03:54:33.253Z,97.25
2019-02-25T03:55:33.153Z,98.86
2019-02-25T03:56:33.054Z,99.99
2019-02-25T03:57:32.970Z,99.99
2019-02-25T03:58:32.844Z,98.86
2019-02-25T03:59:32.743Z,96.59
2019-02-25T04:00:32.651Z,94.70
2019-02-25T04:01:32.539Z,92.99
2019-02-25T04:02:32.453Z,90.44
2019-02-25T04:03:32.336Z,88.74
2019-02-25T04:04:32.232Z,87.70
2019-02-25T04:05:32.130Z,88.45
2019-02-25T04:06:32.030Z,90.63
2019-02-25T04:07:31.948Z,93.28
2019-02-25T04:08:31.826Z,94.23
2019-02-25T04:09:31.720Z,94.51
2019-02-25T04:10:31.631Z,94.42
2019-02-25T04:11:31.520Z,92.05
2019-02-25T04:12:31.434Z,89.59
2019-02-25T04:13:31.313Z,89.02
2019-02-25T04:14:31.319Z,87.79
2019-02-25T04:15:31.116Z,85.24
2019-02-25T04:16:31.010Z,82.78
2019-02-25T04:17:30.924Z,82.78
2019-02-25T04:18:30.804Z,85.90
2019-02-25T04:19:30.707Z,87.70
2019-02-25T04:20:30.602Z,86.56
2019-02-25T04:21:30.500Z,81.30
2019-02-25T04:22:30.412Z,77.89
2019-02-25T04:23:30.297Z,76.29
2019-02-25T04:24:30.189Z,76.76
2019-02-25T04:25:30.091Z,79.03
2019-02-25T04:26:29.986Z,83.29
2019-02-25T04:27:29.903Z,84.52
2019-02-25T04:28:29.885Z,83.39
2019-02-25T04:29:29.680Z,83.01
2019-02-25T04:30:29.579Z,81.30
2019-02-25T04:31:29.478Z,79.88
2019-02-25T04:32:29.395Z,78.46
2019-02-25T04:33:29.270Z,76.19
2019-02-25T04:34:29.171Z,73.26
2019-02-25T04:35:29.169Z,70.04
2019-02-25T04:36:28.964Z,67.49
2019-02-25T04:37:28.882Z,66.92
2019-02-25T04:38:28.763Z,73.83
2019-02-25T04:39:28.660Z,82.15
2019-02-25T04:40:28.557Z,87.23
2019-02-25T04:41:28.459Z,87.32
2019-02-25T04:42:28.475Z,85.42
2019-02-25T04:43:28.250Z,82.50
2019-02-25T04:44:28.149Z,80.13
2019-02-25T04:45:28.045Z,76.95
2019-02-25T04:46:27.943Z,77.51
2019-02-25T04:47:27.858Z,80.93
2019-02-25T04:48:27.739Z,84.58
2019-02-25T04:49:27.744Z,87.79
2019-02-25T04:50:27.539Z,88.55
2019-02-25T04:51:27.445Z,87.60
2019-02-25T04:52:27.356Z,85.14
2019-02-25T04:53:27.228Z,81.64
2019-02-25T04:54:27.131Z,80.41
2019-02-25T04:55:27.025Z,79.56
2019-02-25T04:56:27.047Z,79.37
2019-02-25T04:57:26.823Z,79.09
2019-02-25T04:58:26.734Z,77.29
2019-02-25T04:59:26.618Z,79.09
2019-02-25T05:00:26.514Z,80.60
2019-02-25T05:01:26.410Z,80.51
2019-02-25T05:02:26.310Z,79.18
2019-02-25T05:03:26.336Z,78.08
2019-02-25T05:04:26.108Z,76.38
2019-02-25T05:05:26.003Z,80.41
2019-02-25T05:06:25.903Z,85.71
2019-02-25T05:07:25.804Z,89.21
2019-02-25T05:08:25.713Z,86.75
2019-02-25T05:09:25.593Z,85.90
2019-02-25T05:10:25.491Z,84.39
2019-02-25T05:11:25.779Z,87.60
2019-02-25T05:12:25.297Z,92.05
2019-02-25T05:13:25.202Z,87.04
2019-02-25T05:14:25.085Z,84.39
2019-02-25T05:15:24.983Z,85.42
2019-02-25T05:16:24.881Z,86.28
2019-02-25T05:17:24.779Z,90.72
2019-02-25T05:18:24.693Z,93.80
2019-02-25T05:19:24.574Z,90.49
2019-02-25T05:20:24.474Z,85.99
2019-02-25T05:21:24.369Z,82.12
2019-02-25T05:22:24.267Z,80.04
2019-02-25T05:23:24.185Z,85.24
2019-02-25T05:24:24.065Z,89.69
2019-02-25T05:25:23.958Z,92.80
2019-02-25T05:26:23.859Z,94.74
2019-02-25T05:27:24.068Z,95.69
2019-02-25T05:28:23.669Z,97.39
2019-02-25T05:29:23.550Z,96.73
2019-02-25T05:30:23.458Z,91.91
2019-02-25T05:31:23.345Z,90.01
2019-02-25T05:32:23.379Z,89.45
2019-02-25T05:33:23.159Z,89.45
2019-02-25T05:34:23.061Z,87.98
2019-02-25T05:35:22.943Z,87.41
2019-02-25T05:36:22.834Z,84.20
2019-02-25T05:37:22.734Z,82.97
2019-02-25T05:38:22.646Z,82.68
2019-02-25T05:39:22.634Z,80.60
2019-02-25T05:40:22.427Z,80.41
2019-02-25T05:41:22.323Z,83.10
2019-02-25T05:42:22.223Z,83.01
2019-02-25T05:43:22.140Z,83.95
2019-02-25T05:44:22.019Z,84.20
2019-02-25T05:45:21.913Z,81.74
2019-02-25T05:46:21.914Z,78.94
2019-02-25T05:47:21.708Z,77.51
2019-02-25T05:48:21.627Z,75.91
2019-02-25T05:49:21.510Z,74.96
2019-02-25T05:50:21.405Z,73.54
2019-02-25T05:51:21.300Z,72.60
2019-02-25T05:52:21.337Z,73.07
2019-02-25T05:53:21.119Z,72.31
2019-02-25T05:54:21.002Z,70.93
2019-02-25T05:55:20.891Z,70.07
2019-02-25T05:56:20.789Z,69.89
2019-02-25T05:57:20.687Z,69.79
2019-02-25T05:58:20.604Z,70.07
2019-02-25T05:59:20.486Z,70.17
2019-02-25T06:00:20.384Z,69.98
2019-02-25T06:01:20.279Z,70.07
2019-02-25T06:02:20.176Z,69.98
2019-02-25T06:03:20.093Z,69.70
2019-02-25T06:04:19.974Z,70.17
2019-02-25T06:05:19.872Z,76.42
2019-02-25T06:06:19.787Z,82.10
2019-02-25T06:07:19.671Z,86.51
2019-02-25T06:08:19.585Z,87.74
2019-02-25T06:09:19.467Z,86.89
2019-02-25T06:10:19.362Z,86.32
2019-02-25T06:11:19.278Z,83.01
2019-02-25T06:12:19.162Z,81.59
2019-02-25T06:13:19.071Z,80.36
2019-02-25T06:14:18.953Z,78.94
2019-02-25T06:15:18.855Z,76.57
2019-02-25T06:16:18.751Z,74.68
2019-02-25T06:17:18.646Z,72.34
2019-02-25T06:18:18.571Z,71.59
2019-02-25T06:19:18.443Z,70.64
2019-02-25T06:20:18.348Z,69.79
2019-02-25T06:21:18.241Z,75.19
2019-02-25T06:22:18.138Z,81.25
2019-02-25T06:23:18.041Z,84.52
2019-02-25T06:24:17.954Z,85.94
2019-02-25T06:25:17.851Z,87.08
2019-02-25T06:26:17.733Z,87.65
2019-02-25T06:27:17.735Z,89.16
2019-02-25T06:28:17.531Z,91.01
2019-02-25T06:29:17.441Z,91.86
2019-02-25T06:30:17.324Z,87.04
2019-02-25T06:31:17.222Z,80.64
2019-02-25T06:32:17.128Z,77.14
2019-02-25T06:33:17.017Z,77.80
2019-02-25T06:34:17.037Z,78.75
2019-02-25T06:35:16.840Z,81.49
2019-02-25T06:36:16.712Z,83.86
2019-02-25T06:37:16.616Z,86.70
2019-02-25T06:38:16.512Z,85.38
2019-02-25T06:39:16.444Z,86.04
2019-02-25T06:40:16.392Z,87.27
2019-02-25T06:41:16.310Z,89.44
2019-02-25T06:42:16.102Z,88.49
2019-02-25T06:43:16.009Z,88.02
2019-02-25T06:44:15.919Z,85.00
2019-02-25T06:45:15.803Z,83.76
2019-02-25T06:46:15.697Z,83.48
2019-02-25T06:47:15.599Z,81.96
2019-02-25T06:48:15.612Z,80.40
2019-02-25T06:49:15.410Z,80.11
2019-02-25T06:50:15.289Z,77.84
2019-02-25T06:51:15.191Z,75.76
2019-02-25T06:52:15.086Z,76.61
2019-02-25T06:53:14.987Z,82.29
2019-02-25T06:54:14.902Z,88.82
2019-02-25T06:55:14.889Z,91.00
2019-02-25T06:56:14.687Z,91.95
2019-02-25T06:57:14.621Z,89.58
2019-02-25T06:58:14.479Z,88.73
2019-02-25T06:59:14.395Z,82.81
2019-02-25T07:00:14.279Z,77.97
2019-02-25T07:01:14.174Z,73.84
2019-02-25T07:02:14.186Z,69.01
2019-02-25T07:03:13.975Z,67.05
2019-02-25T07:04:13.889Z,67.24
2019-02-25T07:05:13.773Z,74.45
2019-02-25T07:06:13.673Z,79.57
2019-02-25T07:07:13.573Z,80.90
2019-02-25T07:08:13.472Z,80.99
2019-02-25T07:09:13.483Z,80.80
2019-02-25T07:10:13.289Z,79.76
2019-02-25T07:11:13.173Z,79.90
2019-02-25T07:12:13.075Z,78.00
2019-02-25T07:13:12.975Z,77.62
2019-02-25T07:14:12.882Z,79.55
2019-02-25T07:15:12.795Z,78.42
2019-02-25T07:16:12.785Z,72.38
2019-02-25T07:17:12.580Z,65.82
2019-02-25T07:18:12.482Z,62.12
2019-02-25T07:19:12.391Z,62.02
2019-02-25T07:20:12.303Z,61.36
2019-02-25T07:21:12.191Z,60.91
2019-02-25T07:22:12.091Z,58.83
2019-02-25T07:23:12.105Z,56.54
2019-02-25T07:24:11.899Z,55.97
2019-02-25T07:25:11.820Z,55.30
2019-02-25T07:26:11.711Z,55.05
2019-02-25T07:27:11.630Z,54.67
2019-02-25T07:28:11.515Z,55.71
2019-02-25T07:29:11.416Z,56.38
2019-02-25T07:30:11.437Z,56.31
2019-02-25T07:31:11.228Z,55.36
2019-02-25T07:32:11.131Z,55.77
2019-02-25T07:33:11.037Z,56.44
2019-02-25T07:34:10.939Z,55.49
2019-02-25T07:35:10.858Z,54.91
2019-02-25T07:36:10.855Z,54.41
2019-02-25T07:37:10.660Z,54.22
2019-02-25T07:38:10.564Z,51.97
2019-02-25T07:39:10.464Z,51.10
2019-02-25T07:40:10.386Z,55.32
2019-02-25T07:41:10.275Z,62.56
2019-02-25T07:42:10.182Z,62.37
2019-02-25T07:43:10.088Z,55.22
2019-02-25T07:44:10.107Z,54.15
2019-02-25T07:45:09.916Z,52.34
2019-02-25T07:46:09.809Z,51.10
2019-02-25T07:47:09.723Z,54.25
2019-02-25T07:48:09.620Z,56.63
2019-02-25T07:49:09.528Z,62.46
2019-02-25T07:50:09.454Z,63.23
2019-02-25T07:51:09.341Z,61.16
2019-02-25T07:52:09.252Z,57.26
2019-02-25T07:53:09.157Z,52.04
2019-02-25T07:54:09.061Z,52.26
2019-02-25T07:55:08.992Z,53.02
2019-02-25T07:56:08.877Z,54.19
2019-02-25T07:57:08.802Z,52.76
2019-02-25T07:58:08.696Z,51.33
2019-02-25T07:59:08.607Z,48.57
2019-02-25T08:00:08.526Z,48.18
2019-02-25T08:01:08.420Z,48.18
2019-02-25T08:02:08.330Z,49.02
2019-02-25T08:03:08.239Z,49.40
2019-02-25T08:04:08.146Z,50.92
2019-02-25T08:05:08.070Z,52.92
2019-02-25T08:06:07.970Z,56.17
2019-02-25T08:07:07.870Z,56.17
2019-02-25T08:08:07.783Z,53.88
2019-02-25T08:09:07.692Z,53.81
2019-02-25T08:10:07.616Z,53.59
2019-02-25T08:11:07.522Z,54.26
2019-02-25T08:12:07.419Z,53.21
2019-02-25T08:13:07.328Z,53.02
2019-02-25T08:14:07.236Z,53.33
2019-02-25T08:15:08.959Z,50.95
2019-02-25T08:16:07.059Z,50.47
2019-02-25T08:17:06.968Z,50.88
2019-02-25T08:18:06.876Z,52.40
2019-02-25T08:19:06.789Z,51.07
2019-02-25T08:20:06.714Z,52.31
2019-02-25T08:21:06.606Z,55.08
2019-02-25T08:22:06.517Z,52.50
2019-02-25T08:23:06.430Z,50.81
2019-02-25T08:24:06.343Z,56.23
2019-02-25T08:25:06.266Z,61.25
2019-02-25T08:26:06.162Z,65.80
2019-02-25T08:27:06.073Z,62.18
2019-02-25T08:28:05.987Z,57.82
2019-02-25T08:29:05.892Z,54.29
2019-02-25T08:30:05.822Z,55.65
2019-02-25T08:31:05.715Z,56.89
2019-02-25T08:32:05.629Z,55.20
2019-02-25T08:33:05.535Z,54.75
2019-02-25T08:34:05.450Z,52.36
2019-02-25T08:35:05.379Z,50.93
2019-02-25T08:36:05.273Z,51.67
2019-02-25T08:37:05.181Z,53.51
2019-02-25T08:38:05.095Z,52.36
2019-02-25T08:39:05.020Z,49.90
2019-02-25T08:40:04.932Z,49.43
2019-02-25T08:41:04.833Z,47.11
2019-02-25T08:42:04.739Z,47.58
2019-02-25T08:43:04.652Z,48.64
2019-02-25T08:44:04.566Z,48.18
2019-02-25T08:45:04.488Z,49.80
2019-02-25T08:46:04.390Z,51.15
2019-02-25T08:47:04.301Z,50.19
2019-02-25T08:48:04.211Z,49.64
2019-02-25T08:49:04.123Z,48.11
2019-02-25T08:50:04.053Z,48.52
2019-02-25T08:51:03.951Z,49.74
2019-02-25T08:52:03.863Z,52.48
2019-02-25T08:53:03.777Z,52.22
2019-02-25T08:54:03.687Z,51.93
2019-02-25T08:55:03.600Z,47.30
2019-02-25T08:56:03.532Z,46.92
2019-02-25T08:57:03.429Z,45.75
2019-02-25T08:58:03.336Z,46.01
2019-02-25T08:59:03.252Z,48.68
2019-02-25T09:00:03.173Z,49.44
2019-02-25T09:01:03.094Z,52.40
2019-02-25T09:02:02.989Z,53.72
2019-02-25T09:03:02.899Z,55.72
2019-02-25T09:04:02.813Z,56.89
2019-02-25T09:05:02.728Z,55.94
2019-02-25T09:06:02.653Z,52.15
2019-02-25T09:07:02.551Z,49.69
2019-02-25T09:08:02.462Z,47.32
2019-02-25T09:09:02.377Z,45.31
2019-02-25T09:10:02.289Z,45.62
2019-02-25T09:11:02.227Z,44.88
2019-02-25T09:12:02.114Z,46.05
2019-02-25T09:13:02.028Z,48.04
2019-02-25T09:14:02.056Z,49.86
2019-02-25T09:15:01.850Z,50.15
2019-02-25T09:16:01.780Z,47.30
2019-02-25T09:17:01.674Z,45.38
2019-02-25T09:18:01.585Z,43.01
2019-02-25T09:19:01.498Z,41.60
2019-02-25T09:20:01.415Z,41.96
2019-02-25T09:21:01.448Z,45.19
2019-02-25T09:22:01.239Z,47.58
2019-02-25T09:23:01.153Z,46.53
2019-02-25T09:24:01.069Z,45.96
2019-02-25T09:25:00.979Z,46.08
2019-02-25T09:26:00.909Z,46.00
2019-02-25T09:27:00.803Z,46.77
2019-02-25T09:28:00.822Z,46.46
2019-02-25T09:29:00.634Z,47.32
2019-02-25T09:30:00.544Z,48.18
2019-02-25T09:31:00.481Z,47.53
2019-02-25T09:32:00.371Z,48.30
2019-02-25T09:33:00.286Z,47.37
2019-02-25T09:34:00.202Z,47.53
2019-02-25T09:35:00.283Z,48.30
2019-02-25T09:36:00.042Z,47.63
2019-02-25T09:36:59.940Z,47.63
2019-02-25T09:37:59.855Z,47.71
2019-02-25T09:38:59.769Z,48.49
2019-02-25T09:39:59.682Z,48.43
2019-02-25T09:40:59.614Z,47.75
2019-02-25T09:41:59.616Z,46.22
2019-02-25T09:42:59.425Z,46.29
2019-02-25T09:43:59.341Z,46.58
2019-02-25T09:44:59.254Z,47.25
2019-02-25T09:45:59.183Z,46.60
2019-02-25T09:46:59.088Z,44.97
2019-02-25T09:47:58.997Z,45.00
2019-02-25T09:48:59.019Z,44.70
2019-02-25T09:49:58.827Z,45.47
2019-02-25T09:50:58.757Z,45.47
2019-02-25T09:51:58.655Z,45.00
2019-02-25T09:52:58.569Z,45.68
2019-02-25T09:53:58.487Z,45.30
2019-02-25T09:54:58.397Z,46.28
2019-02-25T09:55:58.438Z,46.00
2019-02-25T09:56:58.244Z,47.05
2019-02-25T09:57:58.143Z,47.27
2019-02-25T09:58:58.057Z,46.69
2019-02-25T09:59:57.972Z,46.48
2019-02-25T10:00:57.906Z,46.21
2019-02-25T10:01:57.805Z,46.41
2019-02-25T10:02:57.818Z,46.77
2019-02-25T10:03:57.634Z,47.25
2019-02-25T10:04:57.548Z,47.53
2019-02-25T10:05:57.481Z,48.59
2019-02-25T10:07:02.271Z,48.28
2019-02-25T10:07:57.309Z,50.17
2019-02-25T10:08:57.210Z,51.23
2019-02-25T10:09:57.221Z,51.87
2019-02-25T10:10:57.060Z,52.36
2019-02-25T10:11:56.955Z,53.41
2019-02-25T10:12:56.871Z,53.24
2019-02-25T10:13:56.787Z,54.13
2019-02-25T10:14:56.703Z,53.85
2019-02-25T10:15:56.621Z,53.08
2019-02-25T10:16:56.650Z,53.27
2019-02-25T10:17:56.450Z,54.64
2019-02-25T10:18:56.363Z,53.08
2019-02-25T10:19:56.280Z,53.30
2019-02-25T10:20:56.212Z,54.04
2019-02-25T10:21:56.115Z,54.33
2019-02-25T10:22:56.130Z,54.80
2019-02-25T10:23:55.945Z,54.55
2019-02-25T10:24:55.859Z,53.35
2019-02-25T10:25:55.776Z,52.03
2019-02-25T10:26:55.711Z,50.23
2019-02-25T10:27:55.606Z,50.49
2019-02-25T10:28:55.527Z,50.90
2019-02-25T10:29:55.471Z,51.43
2019-02-25T10:30:55.359Z,50.54
2019-02-25T10:31:55.295Z,50.45
2019-02-25T10:32:55.188Z,50.68
2019-02-25T10:33:55.107Z,50.42
2019-02-25T10:34:55.029Z,50.15
2019-02-25T10:35:54.940Z,50.61
2019-02-25T10:36:54.874Z,50.35
2019-02-25T10:37:54.774Z,50.63
2019-02-25T10:38:54.690Z,50.71
2019-02-25T10:39:54.606Z,49.65
2019-02-25T10:40:54.528Z,50.32
2019-02-25T10:41:55.891Z,50.01
2019-02-25T10:42:54.358Z,51.23
2019-02-25T10:43:54.274Z,51.31
2019-02-25T10:44:54.191Z,51.72
2019-02-25T10:45:54.111Z,51.55
2019-02-25T10:46:54.044Z,51.84
2019-02-25T10:47:58.308Z,50.13
2019-02-25T10:48:56.340Z,49.87
2019-02-25T10:49:53.779Z,48.61
2019-02-25T10:50:56.231Z,49.91
2019-02-25T10:51:53.644Z,50.59
2019-02-25T10:53:03.018Z,52.00
2019-02-25T10:53:53.625Z,52.65
2019-02-25T10:54:54.074Z,52.00
2019-02-25T10:55:53.285Z,51.43
2019-02-25T10:56:54.204Z,51.91
2019-02-25T10:57:54.970Z,51.14
2019-02-25T10:58:53.029Z,52.00
2019-02-25T10:59:52.946Z,52.00
2019-02-25T11:00:52.861Z,51.88
2019-02-25T11:01:52.794Z,52.62
2019-02-25T11:02:53.589Z,54.23
2019-02-25T11:03:54.244Z,55.26
2019-02-25T11:04:53.577Z,54.71
2019-02-25T11:05:54.029Z,53.90
2019-02-25T11:06:52.383Z,52.70
2019-02-25T11:07:52.280Z,51.96
2019-02-25T11:08:52.202Z,50.25
2019-02-25T11:09:52.112Z,50.93
2019-02-25T11:10:53.213Z,50.04
2019-02-25T11:11:52.778Z,50.18
2019-02-25T11:12:53.356Z,49.58
2019-02-25T11:13:51.802Z,49.91
2019-02-25T11:14:51.697Z,51.84
2019-02-25T11:15:51.839Z,51.48
2019-02-25T11:16:52.235Z,51.09
2019-02-25T11:17:52.134Z,50.25
2019-02-25T11:18:52.782Z,50.45
2019-02-25T11:19:51.282Z,50.61
2019-02-25T11:20:51.198Z,50.59
2019-02-25T11:21:51.131Z,51.86
2019-02-25T11:22:51.033Z,51.76
2019-02-25T11:23:53.149Z,51.48
2019-02-25T11:24:51.827Z,52.73
2019-02-25T11:25:51.490Z,52.34
2019-02-25T11:26:50.716Z,52.34
2019-02-25T11:27:50.621Z,51.70
2019-02-25T11:28:50.534Z,51.67
2019-02-25T11:29:50.451Z,52.80
2019-02-25T11:30:53.265Z,52.87
2019-02-25T11:31:51.589Z,53.35
2019-02-25T11:32:51.723Z,53.52
2019-02-25T11:33:50.123Z,53.61
2019-02-25T11:34:50.039Z,54.77
2019-02-25T11:35:49.958Z,54.12
2019-02-25T11:36:50.830Z,53.92
2019-02-25T11:37:51.840Z,54.79
2019-02-25T11:38:49.707Z,54.77
2019-02-25T11:39:49.623Z,55.32
2019-02-25T11:40:49.541Z,55.63
2019-02-25T11:41:49.477Z,55.44
2019-02-25T11:42:49.374Z,54.99
2019-02-25T11:43:52.219Z,54.72
2019-02-25T11:44:49.204Z,53.76
2019-02-25T11:45:49.126Z,54.50
2019-02-25T11:46:49.057Z,55.82
2019-02-25T11:47:48.956Z,55.99
2019-02-25T11:48:48.872Z,56.68
2019-02-25T11:49:50.799Z,55.63
2019-02-25T11:50:48.707Z,56.66
2019-02-25T11:51:48.638Z,56.66
2019-02-25T11:52:48.541Z,56.56
2019-02-25T11:53:48.453Z,56.95
2019-02-25T11:54:48.473Z,58.58
2019-02-25T11:55:48.289Z,57.33
2019-02-25T11:56:48.218Z,56.68
2019-02-25T11:57:48.120Z,57.71
2019-02-25T11:58:48.036Z,57.26
2019-02-25T11:59:47.949Z,56.56
2019-02-25T12:00:47.863Z,57.36
2019-02-25T12:01:47.799Z,56.98
2019-02-25T12:02:47.699Z,56.52
2019-02-25T12:03:47.617Z,57.07
2019-02-25T12:04:48.512Z,57.00
2019-02-25T12:05:47.446Z,57.75
2019-02-25T12:06:47.380Z,57.71
2019-02-25T12:07:47.277Z,58.74
2019-02-25T12:08:47.296Z,58.55
2019-02-25T12:09:47.105Z,58.26
2019-02-25T12:10:47.022Z,57.81
2019-02-25T12:11:46.939Z,56.81
2019-02-25T12:12:46.870Z,56.49
2019-02-25T12:13:46.768Z,55.24
2019-02-25T12:14:46.690Z,56.71
2019-02-25T12:15:46.704Z,57.43
2019-02-25T12:16:46.515Z,58.03
2019-02-25T12:17:46.451Z,57.07
2019-02-25T12:18:46.348Z,56.59
2019-02-25T12:19:46.263Z,56.66
2019-02-25T12:20:46.178Z,57.33
2019-02-25T12:21:46.092Z,58.36
2019-02-25T12:22:46.111Z,57.36
2019-02-25T12:23:45.921Z,56.81
2019-02-25T12:24:45.839Z,56.76
2019-02-25T12:25:45.752Z,56.56
2019-02-25T12:26:45.671Z,56.66
2019-02-25T12:27:45.602Z,55.82
2019-02-25T12:28:45.497Z,55.76
2019-02-25T12:29:45.518Z,56.04
2019-02-25T12:30:45.327Z,54.79
2019-02-25T12:31:45.249Z,54.89
2019-02-25T12:32:45.178Z,55.73
2019-02-25T12:33:45.078Z,55.44
2019-02-25T12:34:44.990Z,55.79
2019-02-25T12:35:44.906Z,56.66
2019-02-25T12:36:44.922Z,57.14
2019-02-25T12:37:44.749Z,57.62
2019-02-25T12:38:44.654Z,57.75
2019-02-25T12:39:44.566Z,57.14
2019-02-25T12:40:44.484Z,57.75
2019-02-25T12:41:44.393Z,56.76
2019-02-25T12:42:44.325Z,56.21
2019-02-25T12:43:44.351Z,55.44
2019-02-25T12:44:44.139Z,54.47
2019-02-25T12:45:44.054Z,55.73
2019-02-25T12:46:43.974Z,56.66
2019-02-25T12:47:43.899Z,57.97
2019-02-25T12:48:43.806Z,57.30
2019-02-25T12:49:43.718Z,57.50
2019-02-25T12:50:43.737Z,57.40
2019-02-25T12:51:43.545Z,57.14